createdAt,value
2022-07-26T00:02:18.549Z,98455.38
2022-07-26T00:04:47.550Z,98461.53
2022-07-26T00:07:16.760Z,98465.38
2022-07-26T00:09:48.337Z,98469.25
2022-07-26T00:12:17.469Z,98466.75
2022-07-26T00:14:46.300Z,98482.25
2022-07-26T00:17:16.418Z,98482.59
2022-07-26T00:19:45.075Z,98490.00
2022-07-26T00:22:31.197Z,98487.50
2022-07-26T00:24:59.971Z,98501.69
2022-07-26T00:27:28.628Z,98502.00
2022-07-26T00:29:57.471Z,98506.00
2022-07-26T00:32:27.646Z,98498.13
2022-07-26T00:34:56.381Z,98488.78
2022-07-26T00:37:25.131Z,98490.72
2022-07-26T00:39:53.833Z,98489.22
2022-07-26T00:42:22.635Z,98498.25
2022-07-26T00:44:51.412Z,98503.06
2022-07-26T00:47:21.108Z,98510.78
2022-07-26T00:49:51.447Z,98506.91
2022-07-26T00:52:20.239Z,98514.66
2022-07-26T00:54:49.187Z,98521.94
2022-07-26T00:57:19.827Z,98520.03
2022-07-26T00:59:49.340Z,98533.25
2022-07-26T01:02:19.285Z,98547.41
2022-07-26T01:04:49.185Z,98553.41
2022-07-26T01:07:19.402Z,98553.34
2022-07-26T01:09:48.253Z,98538.34
2022-07-26T01:12:18.320Z,98541.75
2022-07-26T01:14:47.617Z,98543.34
2022-07-26T01:17:16.858Z,98552.97
2022-07-26T01:19:45.685Z,98564.38
2022-07-26T01:22:15.785Z,98573.91
2022-07-26T01:24:44.605Z,98579.94
2022-07-26T01:27:13.377Z,98579.19
2022-07-26T01:29:42.266Z,98572.09
2022-07-26T01:32:11.204Z,98559.31
2022-07-26T01:34:39.978Z,98565.50
2022-07-26T01:37:08.832Z,98564.09
2022-07-26T01:39:39.450Z,98561.69
2022-07-26T01:42:08.504Z,98559.16
2022-07-26T01:44:37.424Z,98549.53
2022-07-26T01:47:06.373Z,98548.41
2022-07-26T01:49:35.185Z,98545.66
2022-07-26T01:52:03.923Z,98553.53
2022-07-26T01:54:32.785Z,98559.00
2022-07-26T01:57:02.958Z,98553.38
2022-07-26T01:59:31.646Z,98559.69
2022-07-26T02:02:02.184Z,98558.41
2022-07-26T02:04:48.488Z,98548.00
2022-07-26T02:07:17.274Z,98556.53
2022-07-26T02:09:46.180Z,98554.13
2022-07-26T02:12:17.911Z,98549.16
2022-07-26T02:14:46.688Z,98551.78
2022-07-26T02:17:15.424Z,98554.88
2022-07-26T02:19:44.218Z,98545.91
2022-07-26T02:22:13.140Z,98551.88
2022-07-26T02:24:42.213Z,98548.97
2022-07-26T02:27:11.144Z,98556.81
2022-07-26T02:29:41.710Z,98559.09
2022-07-26T02:32:11.442Z,98550.59
2022-07-26T02:34:40.226Z,98543.53
2022-07-26T02:37:09.503Z,98543.03
2022-07-26T02:39:38.257Z,98546.91
2022-07-26T02:42:07.210Z,98548.50
2022-07-26T02:44:36.732Z,98558.69
2022-07-26T02:47:07.163Z,98558.69
2022-07-26T02:49:35.921Z,98556.28
2022-07-26T02:52:07.463Z,98559.47
2022-07-26T02:54:36.232Z,98566.53
2022-07-26T02:57:05.137Z,98581.34
2022-07-26T02:59:33.862Z,98564.94
2022-07-26T03:02:02.669Z,98570.75
2022-07-26T03:04:32.891Z,98581.66
2022-07-26T03:07:01.640Z,98574.91
2022-07-26T03:09:31.095Z,98576.84
2022-07-26T03:11:59.814Z,98582.28
2022-07-26T03:14:28.525Z,98587.16
2022-07-26T03:17:01.858Z,98580.88
2022-07-26T03:19:32.062Z,98580.25
2022-07-26T03:22:00.722Z,98582.19
2022-07-26T03:24:29.506Z,98589.41
2022-07-26T03:26:58.337Z,98578.34
2022-07-26T03:29:26.987Z,98574.00
2022-07-26T03:31:55.820Z,98579.94
2022-07-26T03:34:24.678Z,98583.78
2022-07-26T03:36:54.843Z,98583.16
2022-07-26T03:42:18.688Z,98577.22
2022-07-26T03:44:47.444Z,98574.97
2022-07-26T03:47:16.206Z,98578.19
2022-07-26T03:49:45.168Z,98574.00
2022-07-26T03:52:15.395Z,98570.78
2022-07-26T03:54:44.181Z,98574.00
2022-07-26T03:57:11.936Z,98579.75
2022-07-26T03:59:40.739Z,98588.28
2022-07-26T04:02:09.966Z,98589.88
2022-07-26T04:04:39.093Z,98590.69
2022-07-26T04:07:08.790Z,98594.53
2022-07-26T04:09:39.760Z,98590.81
2022-07-26T04:12:09.003Z,98599.66
2022-07-26T04:14:38.665Z,98601.06
2022-07-26T04:17:07.435Z,98592.75
2022-07-26T04:19:39.764Z,98598.00
2022-07-26T04:22:08.828Z,98599.66
2022-07-26T04:24:38.971Z,98595.00
2022-07-26T04:27:07.983Z,98599.78
2022-07-26T04:29:36.764Z,98604.13
2022-07-26T04:32:05.882Z,98608.91
2022-07-26T04:34:35.596Z,98609.91
2022-07-26T04:37:04.369Z,98596.91
2022-07-26T04:39:33.022Z,98609.44
2022-07-26T04:42:03.300Z,98607.81
2022-07-26T04:44:32.091Z,98606.03
2022-07-26T04:47:00.925Z,98613.63
2022-07-26T04:49:29.775Z,98612.31
2022-07-26T04:51:59.620Z,98610.91
2022-07-26T04:54:28.454Z,98606.09
2022-07-26T04:56:57.131Z,98615.09
2022-07-26T04:59:27.283Z,98616.69
2022-07-26T05:01:56.211Z,98622.63
2022-07-26T05:04:25.474Z,98616.84
2022-07-26T05:06:54.415Z,98623.91
2022-07-26T05:09:23.196Z,98619.41
2022-07-26T05:11:51.974Z,98612.03
2022-07-26T05:14:20.815Z,98619.25
2022-07-26T05:16:52.586Z,98619.09
2022-07-26T05:19:21.938Z,98621.69
2022-07-26T05:21:51.606Z,98622.16
2022-07-26T05:24:20.616Z,98616.69
2022-07-26T05:26:49.460Z,98622.47
2022-07-26T05:29:18.561Z,98619.91
2022-07-26T05:31:47.849Z,98624.72
2022-07-26T05:34:18.087Z,98630.66
2022-07-26T05:36:47.449Z,98639.81
2022-07-26T05:39:16.397Z,98642.22
2022-07-26T05:41:47.140Z,98645.59
2022-07-26T05:44:16.590Z,98640.28
2022-07-26T05:46:47.597Z,98638.19
2022-07-26T05:49:18.533Z,98635.28
2022-07-26T05:51:49.576Z,98637.69
2022-07-26T05:54:22.857Z,98641.72
2022-07-26T05:56:52.234Z,98630.94
2022-07-26T05:59:21.149Z,98642.84
2022-07-26T06:01:50.621Z,98637.38
2022-07-26T06:04:21.093Z,98636.41
2022-07-26T06:06:53.239Z,98638.66
2022-07-26T06:09:22.654Z,98646.41
2022-07-26T06:11:51.882Z,98649.25
2022-07-26T06:14:21.627Z,98646.38
2022-07-26T06:16:52.805Z,98650.06
2022-07-26T06:19:23.745Z,98653.44
2022-07-26T06:21:52.887Z,98657.75
2022-07-26T06:24:22.505Z,98656.31
2022-07-26T06:26:56.867Z,98648.78
2022-07-26T06:29:32.327Z,98656.66
2022-07-26T06:32:02.166Z,98657.47
2022-07-26T06:34:32.817Z,98655.81
2022-07-26T06:37:02.249Z,98655.53
2022-07-26T06:39:32.369Z,98660.03
2022-07-26T06:42:04.465Z,98666.75
2022-07-26T06:44:33.927Z,98665.00
2022-07-26T06:47:03.937Z,98670.25
2022-07-26T06:49:34.280Z,98662.88
2022-07-26T06:52:03.261Z,98662.09
2022-07-26T06:54:33.369Z,98663.19
2022-07-26T06:57:02.351Z,98658.53
2022-07-26T06:59:32.225Z,98661.13
2022-07-26T07:02:02.153Z,98661.47
2022-07-26T07:04:35.011Z,98658.69
2022-07-26T07:07:05.943Z,98662.56
2022-07-26T07:09:35.831Z,98672.19
2022-07-26T07:12:10.237Z,98671.25
2022-07-26T07:14:39.889Z,98659.31
2022-07-26T07:17:11.132Z,98663.69
2022-07-26T07:19:44.633Z,98664.50
2022-07-26T07:22:13.554Z,98662.56
2022-07-26T07:24:44.396Z,98666.41
2022-07-26T07:27:15.766Z,98662.88
2022-07-26T07:29:45.417Z,98659.31
2022-07-26T07:32:18.095Z,98662.19
2022-07-26T07:34:50.012Z,98661.03
2022-07-26T07:37:20.453Z,98660.88
2022-07-26T07:39:50.284Z,98657.81
2022-07-26T07:42:20.370Z,98651.88
2022-07-26T07:44:50.222Z,98651.19
2022-07-26T07:47:22.339Z,98656.66
2022-07-26T07:49:52.511Z,98647.50
2022-07-26T07:52:21.309Z,98651.50
2022-07-26T07:54:51.555Z,98649.75
2022-07-26T07:57:20.677Z,98652.31
2022-07-26T07:59:53.025Z,98647.44
2022-07-26T08:02:21.867Z,98651.75
2022-07-26T08:04:52.059Z,98646.28
2022-07-26T08:07:22.081Z,98653.53
2022-07-26T08:09:50.833Z,98649.28
2022-07-26T08:12:19.557Z,98651.00
2022-07-26T08:14:48.337Z,98653.84
2022-07-26T08:17:22.117Z,98658.06
2022-07-26T08:20:01.858Z,98660.31
2022-07-26T08:22:30.776Z,98666.72
2022-07-26T08:25:00.514Z,98663.38
2022-07-26T08:27:29.168Z,98657.59
2022-07-26T08:29:59.035Z,98654.38
2022-07-26T08:32:27.823Z,98654.88
2022-07-26T08:34:57.145Z,98667.47
2022-07-26T08:37:47.561Z,98672.94
2022-07-26T08:40:16.377Z,98672.78
2022-07-26T08:42:52.707Z,98680.31
2022-07-26T08:45:26.680Z,98665.28
2022-07-26T08:48:16.547Z,98668.63
2022-07-26T08:50:46.289Z,98669.41
2022-07-26T08:53:17.163Z,98670.88
2022-07-26T08:56:06.384Z,98674.47
2022-07-26T08:58:37.383Z,98675.50
2022-07-26T09:01:13.309Z,98676.47
2022-07-26T09:03:44.826Z,98678.88
2022-07-26T09:06:22.375Z,98670.41
2022-07-26T09:08:54.750Z,98672.94
2022-07-26T09:11:34.935Z,98668.78
2022-07-26T09:14:06.414Z,98671.84
2022-07-26T09:16:39.899Z,98674.13
2022-07-26T09:19:21.534Z,98676.38
2022-07-26T09:21:51.296Z,98679.59
2022-07-26T09:24:35.646Z,98677.84
2022-07-26T09:27:08.789Z,98675.72
2022-07-26T09:29:47.336Z,98682.34
2022-07-26T09:32:19.832Z,98682.41
2022-07-26T09:34:54.328Z,98684.84
2022-07-26T09:37:38.397Z,98687.47
2022-07-26T09:40:12.413Z,98694.63
2022-07-26T09:42:56.984Z,98684.75
2022-07-26T09:45:27.815Z,98685.66
2022-07-26T09:47:57.028Z,98674.50
2022-07-26T09:50:29.685Z,98685.75
2022-07-26T09:53:08.004Z,98683.13
2022-07-26T09:55:57.322Z,98675.34
2022-07-26T09:58:28.241Z,98678.69
2022-07-26T10:01:02.348Z,98674.22
2022-07-26T10:03:32.734Z,98675.53
2022-07-26T10:06:04.945Z,98680.50
2022-07-26T10:08:34.610Z,98685.88
2022-07-26T10:11:10.191Z,98679.81
2022-07-26T10:13:40.675Z,98675.22
2022-07-26T10:16:31.832Z,98680.50
2022-07-26T10:19:04.360Z,98679.13
2022-07-26T10:21:35.284Z,98685.06
2022-07-26T10:24:04.972Z,98687.34
2022-07-26T10:27:06.842Z,98683.69
2022-07-26T10:29:40.096Z,98682.56
2022-07-26T10:32:20.703Z,98682.78
2022-07-26T10:34:50.234Z,98668.03
2022-07-26T10:37:28.274Z,98684.13
2022-07-26T10:40:22.821Z,98682.56
2022-07-26T10:42:54.119Z,98680.72
2022-07-26T10:45:25.426Z,98682.06
2022-07-26T10:48:16.014Z,98686.81
2022-07-26T10:50:48.201Z,98683.63
2022-07-26T10:53:23.740Z,98678.72
2022-07-26T10:55:54.732Z,98683.78
2022-07-26T10:58:28.236Z,98688.41
2022-07-26T11:01:03.689Z,98683.41
2022-07-26T11:03:43.115Z,98675.75
2022-07-26T11:06:17.908Z,98669.31
2022-07-26T11:08:50.103Z,98664.56
2022-07-26T11:11:33.162Z,98666.72
2022-07-26T11:14:13.549Z,98661.72
2022-07-26T11:16:50.545Z,98664.88
2022-07-26T11:19:22.562Z,98665.75
2022-07-26T11:21:59.181Z,98674.59
2022-07-26T11:24:30.455Z,98670.97
2022-07-26T11:27:06.600Z,98679.50
2022-07-26T11:29:41.667Z,98664.16
2022-07-26T11:32:20.440Z,98678.38
2022-07-26T11:35:02.276Z,98672.13
2022-07-26T11:37:32.206Z,98680.13
2022-07-26T11:40:01.552Z,98685.91
2022-07-26T11:42:30.787Z,98694.91
2022-07-26T11:45:01.738Z,98692.22
2022-07-26T11:47:31.085Z,98683.91
2022-07-26T11:50:34.978Z,98687.88
2022-07-26T11:53:25.127Z,98686.53
2022-07-26T11:56:12.939Z,98691.47
2022-07-26T11:58:44.777Z,98677.31
2022-07-26T12:01:19.015Z,98677.22
2022-07-26T12:03:52.266Z,98686.16
2022-07-26T12:06:26.425Z,98677.09
2022-07-26T12:08:59.525Z,98669.69
2022-07-26T12:11:42.057Z,98681.22
2022-07-26T12:14:17.983Z,98671.88
2022-07-26T12:16:52.338Z,98668.59
2022-07-26T12:19:31.758Z,98673.66
2022-07-26T12:22:12.251Z,98657.34
2022-07-26T12:24:49.595Z,98659.19
2022-07-26T12:27:24.483Z,98660.19
2022-07-26T12:29:57.429Z,98661.31
2022-07-26T12:32:35.505Z,98657.78
2022-07-26T12:35:09.093Z,98654.91
2022-07-26T12:37:53.865Z,98659.19
2022-07-26T12:40:25.992Z,98654.50
2022-07-26T12:43:02.068Z,98655.81
2022-07-26T12:45:33.454Z,98653.81
2022-07-26T12:48:10.221Z,98651.13
2022-07-26T12:50:39.272Z,98636.50
2022-07-26T12:53:12.535Z,98650.97
2022-07-26T12:55:41.858Z,98654.09
2022-07-26T12:58:10.691Z,98649.66
2022-07-26T13:00:39.649Z,98652.66
2022-07-26T13:03:11.977Z,98658.56
2022-07-26T13:05:40.703Z,98673.16
2022-07-26T13:08:12.975Z,98670.06
2022-07-26T13:10:45.771Z,98665.16
2022-07-26T13:13:15.221Z,98672.19
2022-07-26T13:15:45.189Z,98669.38
2022-07-26T13:18:15.790Z,98680.94
2022-07-26T13:20:44.835Z,98678.97
2022-07-26T13:23:15.889Z,98680.41
2022-07-26T13:25:51.017Z,98688.13
2022-07-26T13:28:21.063Z,98689.06
2022-07-26T13:30:50.199Z,98692.63
2022-07-26T13:33:20.648Z,98685.44
2022-07-26T13:35:50.384Z,98691.84
2022-07-26T13:38:21.641Z,98693.78
2022-07-26T13:40:50.546Z,98692.63
2022-07-26T13:43:19.578Z,98693.25
2022-07-26T13:45:48.628Z,98696.72
2022-07-26T13:48:17.599Z,98699.72
2022-07-26T13:50:47.942Z,98695.00
2022-07-26T13:53:17.813Z,98699.59
2022-07-26T13:55:46.881Z,98701.66
2022-07-26T13:58:15.745Z,98700.16
2022-07-26T14:00:46.427Z,98696.81
2022-07-26T14:03:16.879Z,98693.84
2022-07-26T14:05:47.467Z,98689.59
2022-07-26T14:08:17.071Z,98690.72
2022-07-26T14:10:46.925Z,98690.63
2022-07-26T14:13:16.702Z,98690.81
2022-07-26T14:15:45.966Z,98687.25
2022-07-26T14:18:15.443Z,98683.97
2022-07-26T14:20:44.560Z,98698.41
2022-07-26T14:23:15.351Z,98693.28
2022-07-26T14:25:44.262Z,98692.66
2022-07-26T14:28:14.019Z,98690.38
2022-07-26T14:30:42.751Z,98697.69
2022-07-26T14:33:11.927Z,98697.97
2022-07-26T14:35:41.960Z,98701.25
2022-07-26T14:38:10.850Z,98693.53
2022-07-26T14:40:42.248Z,98702.03
2022-07-26T14:43:10.987Z,98702.22
2022-07-26T14:45:39.916Z,98704.25
2022-07-26T14:48:08.823Z,98704.25
2022-07-26T14:50:59.709Z,98713.31
2022-07-26T14:53:26.776Z,98711.00
2022-07-26T14:55:56.907Z,98706.91
2022-07-26T14:58:25.687Z,98703.84
2022-07-26T15:00:55.460Z,98715.63
2022-07-26T15:03:27.406Z,98726.34
2022-07-26T15:06:01.904Z,98719.72
2022-07-26T15:08:31.105Z,98728.13
2022-07-26T15:11:01.684Z,98723.56
2022-07-26T15:13:30.566Z,98725.94
2022-07-26T15:15:59.279Z,98719.50
2022-07-26T15:18:28.921Z,98721.06
2022-07-26T15:20:58.005Z,98721.81
2022-07-26T15:23:27.543Z,98734.59
2022-07-26T15:25:56.385Z,98721.13
2022-07-26T15:28:26.878Z,98718.31
2022-07-26T15:30:55.659Z,98724.53
2022-07-26T15:33:24.497Z,98727.53
2022-07-26T15:35:55.547Z,98722.19
2022-07-26T15:38:24.674Z,98715.63
2022-07-26T15:40:53.383Z,98713.16
2022-07-26T15:43:48.948Z,98713.16
2022-07-26T15:46:15.018Z,98717.50
2022-07-26T15:48:44.836Z,98719.34
2022-07-26T15:51:16.239Z,98728.22
2022-07-26T15:53:46.654Z,98735.25
2022-07-26T15:56:15.809Z,98739.41
2022-07-26T15:58:46.121Z,98736.22
2022-07-26T16:01:20.341Z,98742.72
2022-07-26T16:03:52.892Z,98739.50
2022-07-26T16:06:22.575Z,98745.53
2022-07-26T16:09:15.229Z,98748.03
2022-07-26T16:11:41.532Z,98743.94
2022-07-26T16:14:12.637Z,98743.69
2022-07-26T16:16:41.983Z,98746.44
2022-07-26T16:19:11.504Z,98751.03
2022-07-26T16:21:44.543Z,98754.47
2022-07-26T16:24:15.114Z,98751.06
2022-07-26T16:26:47.719Z,98744.91
2022-07-26T16:29:18.550Z,98744.69
2022-07-26T16:31:48.249Z,98761.00
2022-07-26T16:34:17.637Z,98750.13
2022-07-26T16:36:46.802Z,98749.81
2022-07-26T16:39:16.249Z,98753.34
2022-07-26T16:41:45.915Z,98760.56
2022-07-26T16:44:15.587Z,98756.53
2022-07-26T16:46:47.502Z,98756.75
2022-07-26T16:49:17.902Z,98761.34
2022-07-26T16:51:47.295Z,98761.44
2022-07-26T16:54:16.433Z,98766.72
2022-07-26T16:56:46.274Z,98770.97
2022-07-26T16:59:15.378Z,98770.59
2022-07-26T17:01:46.230Z,98770.38
2022-07-26T17:04:16.273Z,98769.69
2022-07-26T17:07:07.685Z,98772.88
2022-07-26T17:09:37.043Z,98771.63
2022-07-26T17:12:08.196Z,98776.88
2022-07-26T17:14:37.550Z,98777.09
2022-07-26T17:17:09.084Z,98779.50
2022-07-26T17:19:38.626Z,98777.81
2022-07-26T17:22:08.918Z,98774.47
2022-07-26T17:24:39.926Z,98782.13
2022-07-26T17:27:09.800Z,98787.22
2022-07-26T17:29:39.943Z,98786.41
2022-07-26T17:32:11.927Z,98791.91
2022-07-26T17:34:42.599Z,98791.53
2022-07-26T17:37:12.255Z,98791.53
2022-07-26T17:39:50.932Z,98806.13
2022-07-26T17:42:23.986Z,98803.72
2022-07-26T17:44:53.968Z,98805.19
2022-07-26T17:47:29.009Z,98800.81
2022-07-26T17:50:26.179Z,98798.81
2022-07-26T17:52:51.928Z,98798.66
2022-07-26T17:55:21.757Z,98801.56
2022-07-26T17:58:00.334Z,98808.53
2022-07-26T18:00:30.148Z,98806.53
2022-07-26T18:06:20.278Z,98809.88
2022-07-26T18:08:49.106Z,98798.66
2022-07-26T18:11:18.135Z,98804.78
2022-07-26T18:13:46.949Z,98803.06
2022-07-26T18:16:16.027Z,98800.53
2022-07-26T18:18:46.316Z,98804.53
2022-07-26T18:21:15.681Z,98800.25
2022-07-26T18:24:06.710Z,98807.06
2022-07-26T18:26:34.136Z,98810.66
2022-07-26T18:29:05.351Z,98809.72
2022-07-26T18:31:36.589Z,98809.31
2022-07-26T18:34:07.364Z,98809.31
2022-07-26T18:36:36.593Z,98807.75
2022-07-26T18:39:06.000Z,98811.19
2022-07-26T18:41:35.479Z,98809.31
2022-07-26T18:44:04.882Z,98813.97
2022-07-26T18:46:34.009Z,98813.22
2022-07-26T18:49:05.011Z,98819.84
2022-07-26T18:51:39.327Z,98824.50
2022-07-26T18:54:09.979Z,98820.84
2022-07-26T18:56:39.949Z,98829.69
2022-07-26T18:59:10.029Z,98828.72
2022-07-26T19:01:39.506Z,98830.66
2022-07-26T19:04:09.129Z,98837.41
2022-07-26T19:06:40.164Z,98844.31
2022-07-26T19:09:10.816Z,98844.31
2022-07-26T19:11:45.889Z,98842.22
2022-07-26T19:14:16.021Z,98842.41
2022-07-26T19:16:44.811Z,98839.31
2022-07-26T19:19:14.100Z,98850.41
2022-07-26T19:21:47.311Z,98848.16
2022-07-26T19:24:17.214Z,98851.16
2022-07-26T19:26:46.875Z,98854.53
2022-07-26T19:29:19.573Z,98859.16
2022-07-26T19:31:49.028Z,98857.88
2022-07-26T19:34:18.330Z,98856.22
2022-07-26T19:36:51.323Z,98866.47
2022-07-26T19:39:21.732Z,98866.91
2022-07-26T19:41:51.514Z,98876.22
2022-07-26T19:44:21.552Z,98875.69
2022-07-26T19:46:55.548Z,98879.69
2022-07-26T19:49:26.835Z,98874.44
2022-07-26T19:51:57.854Z,98871.97
2022-07-26T19:54:27.564Z,98881.91
2022-07-26T19:56:56.817Z,98886.38
2022-07-26T19:59:26.182Z,98884.78
2022-07-26T20:01:58.476Z,98892.59
2022-07-26T20:04:27.936Z,98903.63
2022-07-26T20:06:58.171Z,98902.97
2022-07-26T20:09:27.708Z,98896.59
2022-07-26T20:11:56.892Z,98897.59
2022-07-26T20:14:26.893Z,98889.66
2022-07-26T20:16:57.131Z,98898.59
2022-07-26T20:19:28.178Z,98896.06
2022-07-26T20:21:58.889Z,98896.97
2022-07-26T20:24:33.448Z,98899.22
2022-07-26T20:27:02.415Z,98893.00
2022-07-26T20:29:31.560Z,98907.75
2022-07-26T20:32:00.733Z,98904.22
2022-07-26T20:34:29.595Z,98905.03
2022-07-26T20:36:59.861Z,98906.44
2022-07-26T20:39:29.907Z,98906.31
2022-07-26T20:41:58.770Z,98899.94
2022-07-26T20:44:30.664Z,98908.09
2022-07-26T20:47:00.564Z,98913.66
2022-07-26T20:49:29.699Z,98903.88
2022-07-26T20:51:59.979Z,98897.75
2022-07-26T20:54:28.968Z,98906.72
2022-07-26T20:56:57.861Z,98917.13
2022-07-26T20:59:27.053Z,98911.66
2022-07-26T21:01:56.046Z,98919.72
2022-07-26T21:04:25.008Z,98917.13
2022-07-26T21:06:56.040Z,98921.38
2022-07-26T21:09:27.467Z,98920.78
2022-07-26T21:11:56.619Z,98924.50
2022-07-26T21:14:25.368Z,98925.59
2022-07-26T21:16:54.497Z,98922.19
2022-07-26T21:19:29.594Z,98916.31
2022-07-26T21:22:00.448Z,98922.28
2022-07-26T21:24:30.918Z,98926.00
2022-07-26T21:26:59.721Z,98916.13
2022-07-26T21:29:29.318Z,98916.34
2022-07-26T21:31:58.512Z,98921.25
2022-07-26T21:34:27.506Z,98922.56
2022-07-26T21:36:56.440Z,98928.22
2022-07-26T21:39:25.307Z,98925.59
2022-07-26T21:41:55.630Z,98931.25
2022-07-26T21:44:24.609Z,98936.91
2022-07-26T21:46:55.136Z,98933.66
2022-07-26T21:49:24.056Z,98932.25
2022-07-26T21:51:53.259Z,98928.94
2022-07-26T21:54:22.225Z,98928.13
2022-07-26T21:56:51.311Z,98930.75
2022-07-26T21:59:21.694Z,98938.81
2022-07-26T22:01:50.460Z,98932.97
2022-07-26T22:04:19.337Z,98932.88
2022-07-26T22:06:48.063Z,98939.34
2022-07-26T22:09:16.862Z,98936.47
2022-07-26T22:11:45.805Z,98939.53
2022-07-26T22:14:14.674Z,98944.78
2022-07-26T22:16:49.411Z,98940.63
2022-07-26T22:19:18.290Z,98946.47
2022-07-26T22:21:47.153Z,98939.94
2022-07-26T22:24:15.937Z,98948.09
2022-07-26T22:26:44.802Z,98942.16
2022-07-26T22:29:13.950Z,98943.44
2022-07-26T22:31:43.065Z,98940.53
2022-07-26T22:34:13.479Z,98946.59
2022-07-26T22:36:45.494Z,98942.75
2022-07-26T22:39:15.109Z,98939.84
2022-07-26T22:42:12.637Z,98940.53
2022-07-26T22:44:32.959Z,98935.28
2022-07-26T22:47:01.845Z,98940.22
2022-07-26T22:49:32.263Z,98934.09
2022-07-26T22:52:01.192Z,98933.97
2022-07-26T22:54:30.086Z,98935.78
2022-07-26T22:56:58.834Z,98931.97
2022-07-26T22:59:27.901Z,98937.91
2022-07-26T23:01:56.771Z,98931.69
2022-07-26T23:04:25.959Z,98941.13
2022-07-26T23:06:58.724Z,98936.91
2022-07-26T23:09:28.824Z,98938.50
2022-07-26T23:11:57.701Z,98940.94
2022-07-26T23:14:27.711Z,98946.69
2022-07-26T23:16:56.551Z,98942.94
2022-07-26T23:19:25.553Z,98943.78
2022-07-26T23:21:54.389Z,98943.97
2022-07-26T23:24:24.635Z,98945.56
2022-07-26T23:26:53.498Z,98944.97
2022-07-26T23:29:22.475Z,98943.84
2022-07-26T23:31:51.370Z,98950.19
2022-07-26T23:34:20.264Z,98953.22
2022-07-26T23:36:49.204Z,98953.22
2022-07-26T23:39:18.019Z,98946.78
2022-07-26T23:41:48.321Z,98957.75
2022-07-26T23:44:18.184Z,98959.88
2022-07-26T23:46:47.046Z,98949.22
2022-07-26T23:49:16.142Z,98963.63
2022-07-26T23:51:45.339Z,98963.09
2022-07-26T23:54:14.145Z,98964.72
2022-07-26T23:56:45.671Z,98963.72
2022-07-26T23:59:16.152Z,98965.22
